PWSweather.com
Personal Weather Stations
Station Observations
WD4JKH
Forsyth, GA 31029

Forsyth, GA 31029

Lat: 33.033225, Lon: -83.927995

Elevation: 709

Station Type: Davis Vantage VUE

High Low Average
Temperature 63.7°F17.6°C 55.1°F12.8°C 59.5°F15.3°C
Dew Point 61.2°F16.2°C 53.9°F12.2°C 57.9°F14.4°C
Winds 3.1 mph 5.0 kmh Calm Calm 1.0 mph WSW1.6 kmh WSW
Wind Gusts 7.0 mph11.3 kmh -- 4.0 mph6.4 kmh
Humidity 97% 91% 95%
Pressure 30.08 in1018.6 mb 30.00 in1015.9 mb -
Precipitation 0.32 in8.1 mm - -
Hour Temp Dew Point Humidity Winds Wind Gusts Pressure Precip Precip Rate Daily Precip Total
12:04 AM 59.3°F15.2°C 56.9°F13.8°C 92% 1.5 mph WSW2.4 kmh WSW 4.0 mph6.4 kmh 30.06 in1017.9 mb 0.00 in0.0 mm 0.00 in0.0 mm 0.00 in0.0 mm
12:09 AM 59.2°F15.1°C 57.1°F13.9°C 93% 1.3 mph SW2.1 kmh SW 4.0 mph6.4 kmh 30.06 in1017.9 mb 0.00 in0.0 mm 0.00 in0.0 mm 0.00 in0.0 mm
12:14 AM 59.2°F15.1°C 57.1°F13.9°C 93% 1.8 mph SW2.9 kmh SW 4.0 mph6.4 kmh 30.06 in1017.9 mb 0.00 in0.0 mm 0.00 in0.0 mm 0.00 in0.0 mm
12:19 AM 59.1°F15.1°C 57.1°F13.9°C 93% 1.9 mph SW3.1 kmh SW 5.0 mph8.0 kmh 30.06 in1017.9 mb 0.00 in0.0 mm 0.00 in0.0 mm 0.00 in0.0 mm
12:24 AM 58.9°F14.9°C 56.9°F13.8°C 93% 1.5 mph WSW2.4 kmh WSW 5.0 mph8.0 kmh 30.06 in1017.9 mb 0.00 in0.0 mm 0.00 in0.0 mm 0.00 in0.0 mm
12:29 AM 58.8°F14.9°C 56.8°F13.8°C 93% 1.1 mph WSW1.8 kmh WSW 5.0 mph8.0 kmh 30.06 in1017.9 mb 0.00 in0.0 mm 0.00 in0.0 mm 0.00 in0.0 mm
12:34 AM 58.7°F14.8°C 56.9°F13.8°C 94% 1.4 mph WSW2.3 kmh WSW 5.0 mph8.0 kmh 30.06 in1017.9 mb 0.00 in0.0 mm 0.00 in0.0 mm 0.00 in0.0 mm
12:39 AM 58.6°F14.8°C 56.8°F13.8°C 94% 1.0 mph WSW1.6 kmh WSW 3.0 mph4.8 kmh 30.06 in1017.9 mb 0.00 in0.0 mm 0.00 in0.0 mm 0.00 in0.0 mm
12:44 AM 58.6°F14.8°C 56.8°F13.8°C 94% 1.5 mph SW2.4 kmh SW 3.0 mph4.8 kmh 30.05 in1017.6 mb 0.00 in0.0 mm 0.00 in0.0 mm 0.00 in0.0 mm
12:49 AM 58.7°F14.8°C 56.9°F13.8°C 94% 1.6 mph WSW2.6 kmh WSW 5.0 mph8.0 kmh 30.05 in1017.6 mb 0.00 in0.0 mm 0.00 in0.0 mm 0.00 in0.0 mm
12:54 AM 58.7°F14.8°C 56.9°F13.8°C 94% 1.4 mph WSW2.3 kmh WSW 5.0 mph8.0 kmh 30.05 in1017.6 mb 0.00 in0.0 mm 0.00 in0.0 mm 0.00 in0.0 mm
12:59 AM 58.6°F14.8°C 56.8°F13.8°C 94% 1.7 mph WSW2.7 kmh WSW 5.0 mph8.0 kmh 30.05 in1017.6 mb 0.00 in0.0 mm 0.00 in0.0 mm 0.00 in0.0 mm
01:04 AM 58.6°F14.8°C 56.8°F13.8°C 94% 2.2 mph WSW3.5 kmh WSW 5.0 mph8.0 kmh 30.05 in1017.6 mb 0.00 in0.0 mm 0.00 in0.0 mm 0.00 in0.0 mm
01:09 AM 58.6°F14.8°C 56.8°F13.8°C 94% 1.6 mph WSW2.6 kmh WSW 5.0 mph8.0 kmh 30.05 in1017.6 mb 0.00 in0.0 mm 0.00 in0.0 mm 0.00 in0.0 mm
01:14 AM 58.6°F14.8°C 56.8°F13.8°C 94% 2.0 mph WSW3.2 kmh WSW 6.0 mph9.7 kmh 30.05 in1017.6 mb 0.00 in0.0 mm 0.00 in0.0 mm 0.00 in0.0 mm
01:19 AM 58.7°F14.8°C 56.9°F13.8°C 94% 1.8 mph WSW2.9 kmh WSW 6.0 mph9.7 kmh 30.04 in1017.3 mb 0.00 in0.0 mm 0.00 in0.0 mm 0.00 in0.0 mm
01:24 AM 58.6°F14.8°C 56.8°F13.8°C 94% 2.2 mph WSW3.5 kmh WSW 6.0 mph9.7 kmh 30.05 in1017.6 mb 0.00 in0.0 mm 0.00 in0.0 mm 0.00 in0.0 mm
01:29 AM 58.5°F14.7°C 56.8°F13.8°C 94% 2.6 mph WSW4.2 kmh WSW 6.0 mph9.7 kmh 30.04 in1017.3 mb 0.00 in0.0 mm 0.00 in0.0 mm 0.00 in0.0 mm
01:34 AM 58.4°F14.7°C 56.7°F13.7°C 94% 1.5 mph WSW2.4 kmh WSW 6.0 mph9.7 kmh 30.04 in1017.3 mb 0.00 in0.0 mm 0.00 in0.0 mm 0.00 in0.0 mm
01:39 AM 58.2°F14.6°C 56.8°F13.8°C 95% 1.8 mph WSW2.9 kmh WSW 6.0 mph9.7 kmh 30.04 in1017.3 mb 0.00 in0.0 mm 0.00 in0.0 mm 0.00 in0.0 mm
01:44 AM 58.1°F14.5°C 56.7°F13.7°C 95% 2.0 mph WSW3.2 kmh WSW 6.0 mph9.7 kmh 30.04 in1017.3 mb 0.00 in0.0 mm 0.00 in0.0 mm 0.00 in0.0 mm
01:49 AM 58.0°F14.4°C 56.5°F13.6°C 95% 2.4 mph WSW3.9 kmh WSW 6.0 mph9.7 kmh 30.03 in1016.9 mb 0.00 in0.0 mm 0.00 in0.0 mm 0.00 in0.0 mm
01:54 AM 58.0°F14.4°C 56.5°F13.6°C 95% 1.7 mph WSW2.7 kmh WSW 6.0 mph9.7 kmh 30.03 in1016.9 mb 0.00 in0.0 mm 0.00 in0.0 mm 0.00 in0.0 mm
01:59 AM 58.0°F14.4°C 56.5°F13.6°C 95% 2.0 mph WSW3.2 kmh WSW 6.0 mph9.7 kmh 30.03 in1016.9 mb 0.00 in0.0 mm 0.00 in0.0 mm 0.00 in0.0 mm
02:04 AM 57.9°F14.4°C 56.4°F13.6°C 95% 2.5 mph WSW4.0 kmh WSW 6.0 mph9.7 kmh 30.03 in1016.9 mb 0.00 in0.0 mm 0.00 in0.0 mm 0.00 in0.0 mm
02:09 AM 58.0°F14.4°C 56.5°F13.6°C 95% 2.4 mph WSW3.9 kmh WSW 6.0 mph9.7 kmh 30.04 in1017.3 mb 0.00 in0.0 mm 0.00 in0.0 mm 0.00 in0.0 mm
02:14 AM 58.0°F14.4°C 56.5°F13.6°C 95% 2.6 mph W4.2 kmh W 6.0 mph9.7 kmh 30.04 in1017.3 mb 0.00 in0.0 mm 0.00 in0.0 mm 0.00 in0.0 mm
02:19 AM 58.0°F14.4°C 56.5°F13.6°C 95% 1.8 mph W2.9 kmh W 6.0 mph9.7 kmh 30.04 in1017.3 mb 0.00 in0.0 mm 0.00 in0.0 mm 0.00 in0.0 mm
02:24 AM 58.1°F14.5°C 56.6°F13.7°C 95% 2.1 mph W3.4 kmh W 6.0 mph9.7 kmh 30.04 in1017.3 mb 0.00 in0.0 mm 0.00 in0.0 mm 0.00 in0.0 mm
02:29 AM 58.1°F14.5°C 56.7°F13.7°C 95% 2.5 mph W4.0 kmh W 6.0 mph9.7 kmh 30.03 in1016.9 mb 0.00 in0.0 mm 0.00 in0.0 mm 0.00 in0.0 mm
02:34 AM 58.2°F14.6°C 56.4°F13.6°C 94% 2.2 mph W3.5 kmh W 6.0 mph9.7 kmh 30.03 in1016.9 mb 0.00 in0.0 mm 0.00 in0.0 mm 0.00 in0.0 mm
02:38 AM 58.1°F14.5°C 56.3°F13.5°C 94% 1.7 mph W2.7 kmh W 5.0 mph8.0 kmh 30.03 in1016.9 mb 0.00 in0.0 mm 0.00 in0.0 mm 0.00 in0.0 mm
02:43 AM 58.1°F14.5°C 56.3°F13.5°C 94% 2.4 mph WSW3.9 kmh WSW 5.0 mph8.0 kmh 30.03 in1016.9 mb 0.00 in0.0 mm 0.00 in0.0 mm 0.00 in0.0 mm
02:48 AM 58.1°F14.5°C 56.3°F13.5°C 94% 1.6 mph W2.6 kmh W 5.0 mph8.0 kmh 30.03 in1016.9 mb 0.00 in0.0 mm 0.00 in0.0 mm 0.00 in0.0 mm
02:53 AM 58.1°F14.5°C 56.3°F13.5°C 94% 1.2 mph W1.9 kmh W 5.0 mph8.0 kmh 30.03 in1016.9 mb 0.00 in0.0 mm 0.00 in0.0 mm 0.00 in0.0 mm
02:58 AM 58.1°F14.5°C 56.4°F13.6°C 94% 1.5 mph W2.4 kmh W 5.0 mph8.0 kmh 30.03 in1016.9 mb 0.00 in0.0 mm 0.00 in0.0 mm 0.00 in0.0 mm
03:03 AM 58.2°F14.6°C 56.5°F13.6°C 94% 1.9 mph W3.1 kmh W 5.0 mph8.0 kmh 30.03 in1016.9 mb 0.00 in0.0 mm 0.00 in0.0 mm 0.00 in0.0 mm
03:08 AM 58.1°F14.5°C 56.3°F13.5°C 94% 1.3 mph W2.1 kmh W 4.0 mph6.4 kmh 30.03 in1016.9 mb 0.00 in0.0 mm 0.00 in0.0 mm 0.00 in0.0 mm
03:13 AM 58.0°F14.4°C 56.2°F13.4°C 94% 1.2 mph WSW1.9 kmh WSW 4.0 mph6.4 kmh 30.03 in1016.9 mb 0.00 in0.0 mm 0.00 in0.0 mm 0.00 in0.0 mm
03:18 AM 58.0°F14.4°C 56.2°F13.4°C 94% 1.3 mph W2.1 kmh W 4.0 mph6.4 kmh 30.02 in1016.6 mb 0.00 in0.0 mm 0.00 in0.0 mm 0.00 in0.0 mm
03:23 AM 58.0°F14.4°C 56.3°F13.5°C 94% 1.0 mph WSW1.6 kmh WSW 3.0 mph4.8 kmh 30.02 in1016.6 mb 0.00 in0.0 mm 0.00 in0.0 mm 0.00 in0.0 mm
03:28 AM 58.0°F14.4°C 56.3°F13.5°C 94% 1.1 mph WSW1.8 kmh WSW 3.0 mph4.8 kmh 30.02 in1016.6 mb 0.00 in0.0 mm 0.00 in0.0 mm 0.00 in0.0 mm
03:33 AM 58.0°F14.4°C 56.3°F13.5°C 94% 1.3 mph W2.1 kmh W 3.0 mph4.8 kmh 30.02 in1016.6 mb 0.00 in0.0 mm 0.00 in0.0 mm 0.00 in0.0 mm
03:38 AM 58.1°F14.5°C 56.3°F13.5°C 94% 1.8 mph W2.9 kmh W 4.0 mph6.4 kmh 30.02 in1016.6 mb 0.00 in0.0 mm 0.00 in0.0 mm 0.00 in0.0 mm
03:43 AM 58.1°F14.5°C 56.3°F13.5°C 94% 2.0 mph W3.2 kmh W 4.0 mph6.4 kmh 30.02 in1016.6 mb 0.00 in0.0 mm 0.00 in0.0 mm 0.00 in0.0 mm
03:48 AM 58.0°F14.4°C 56.2°F13.4°C 94% 1.9 mph W3.1 kmh W 4.0 mph6.4 kmh 30.03 in1016.9 mb 0.00 in0.0 mm 0.00 in0.0 mm 0.00 in0.0 mm
03:53 AM 58.0°F14.4°C 56.3°F13.5°C 94% 2.1 mph WSW3.4 kmh WSW 5.0 mph8.0 kmh 30.02 in1016.6 mb 0.00 in0.0 mm 0.00 in0.0 mm 0.00 in0.0 mm
03:58 AM 58.1°F14.5°C 56.4°F13.6°C 94% 2.7 mph W4.3 kmh W 5.0 mph8.0 kmh 30.02 in1016.6 mb 0.00 in0.0 mm 0.00 in0.0 mm 0.00 in0.0 mm
04:03 AM 58.1°F14.5°C 56.3°F13.5°C 94% 1.8 mph WSW2.9 kmh WSW 5.0 mph8.0 kmh 30.02 in1016.6 mb 0.00 in0.0 mm 0.00 in0.0 mm 0.00 in0.0 mm
04:08 AM 58.0°F14.4°C 56.2°F13.4°C 94% 1.4 mph W2.3 kmh W 5.0 mph8.0 kmh 30.02 in1016.6 mb 0.00 in0.0 mm 0.00 in0.0 mm 0.00 in0.0 mm
04:13 AM 58.1°F14.5°C 56.3°F13.5°C 94% 1.4 mph W2.3 kmh W 5.0 mph8.0 kmh 30.02 in1016.6 mb 0.00 in0.0 mm 0.00 in0.0 mm 0.00 in0.0 mm
04:18 AM 58.0°F14.4°C 56.2°F13.4°C 94% 1.4 mph W2.3 kmh W 5.0 mph8.0 kmh 30.01 in1016.3 mb 0.00 in0.0 mm 0.00 in0.0 mm 0.00 in0.0 mm
04:23 AM 58.0°F14.4°C 56.3°F13.5°C 94% 1.4 mph WSW2.3 kmh WSW 5.0 mph8.0 kmh 30.01 in1016.3 mb 0.00 in0.0 mm 0.00 in0.0 mm 0.00 in0.0 mm
04:28 AM 58.0°F14.4°C 56.3°F13.5°C 94% 1.7 mph WSW2.7 kmh WSW 5.0 mph8.0 kmh 30.01 in1016.3 mb 0.00 in0.0 mm 0.00 in0.0 mm 0.00 in0.0 mm
04:33 AM 57.9°F14.4°C 56.1°F13.4°C 94% 1.2 mph W1.9 kmh W 4.0 mph6.4 kmh 30.01 in1016.3 mb 0.00 in0.0 mm 0.00 in0.0 mm 0.00 in0.0 mm
04:38 AM 57.9°F14.4°C 56.1°F13.4°C 94% 1.4 mph WSW2.3 kmh WSW 4.0 mph6.4 kmh 30.02 in1016.6 mb 0.00 in0.0 mm 0.00 in0.0 mm 0.00 in0.0 mm
04:43 AM 57.8°F14.3°C 56.1°F13.4°C 94% 1.7 mph WSW2.7 kmh WSW 4.0 mph6.4 kmh 30.02 in1016.6 mb 0.00 in0.0 mm 0.00 in0.0 mm 0.00 in0.0 mm
04:48 AM 57.8°F14.3°C 56.0°F13.3°C 94% 2.0 mph WSW3.2 kmh WSW 4.0 mph6.4 kmh 30.01 in1016.3 mb 0.00 in0.0 mm 0.00 in0.0 mm 0.00 in0.0 mm
04:53 AM 57.8°F14.3°C 56.1°F13.4°C 94% 1.4 mph WSW2.3 kmh WSW 4.0 mph6.4 kmh 30.02 in1016.6 mb 0.00 in0.0 mm 0.00 in0.0 mm 0.00 in0.0 mm
04:58 AM 57.8°F14.3°C 56.1°F13.4°C 94% 1.3 mph WSW2.1 kmh WSW 4.0 mph6.4 kmh 30.02 in1016.6 mb 0.00 in0.0 mm 0.00 in0.0 mm 0.00 in0.0 mm
05:03 AM 57.8°F14.3°C 56.0°F13.3°C 94% 1.4 mph WSW2.3 kmh WSW 4.0 mph6.4 kmh 30.02 in1016.6 mb 0.00 in0.0 mm 0.00 in0.0 mm 0.00 in0.0 mm
05:08 AM 57.8°F14.3°C 56.0°F13.3°C 94% 1.1 mph W1.8 kmh W 4.0 mph6.4 kmh 30.02 in1016.6 mb 0.00 in0.0 mm 0.00 in0.0 mm 0.00 in0.0 mm
05:13 AM 58.0°F14.4°C 56.0°F13.3°C 93% 1.7 mph WNW2.7 kmh WNW 4.0 mph6.4 kmh 30.02 in1016.6 mb 0.00 in0.0 mm 0.00 in0.0 mm 0.00 in0.0 mm
05:18 AM 58.0°F14.4°C 56.0°F13.3°C 93% 1.1 mph W1.8 kmh W 4.0 mph6.4 kmh 30.01 in1016.3 mb 0.00 in0.0 mm 0.00 in0.0 mm 0.00 in0.0 mm
05:23 AM 57.9°F14.4°C 55.9°F13.3°C 93% 1.0 mph W1.6 kmh W 4.0 mph6.4 kmh 30.01 in1016.3 mb 0.00 in0.0 mm 0.00 in0.0 mm 0.00 in0.0 mm
05:28 AM 57.9°F14.4°C 55.8°F13.2°C 93% Calm Calm 4.0 mph6.4 kmh 30.01 in1016.3 mb 0.00 in0.0 mm 0.00 in0.0 mm 0.00 in0.0 mm
05:33 AM 57.8°F14.3°C 55.7°F13.2°C 93% Calm Calm 2.0 mph3.2 kmh 30.01 in1016.3 mb 0.00 in0.0 mm 0.00 in0.0 mm 0.00 in0.0 mm
05:38 AM 57.6°F14.2°C 55.6°F13.1°C 93% Calm Calm 1.0 mph1.6 kmh 30.02 in1016.6 mb 0.00 in0.0 mm 0.00 in0.0 mm 0.00 in0.0 mm
05:43 AM 57.6°F14.2°C 55.6°F13.1°C 93% Calm Calm 1.0 mph1.6 kmh 30.02 in1016.6 mb 0.00 in0.0 mm 0.00 in0.0 mm 0.00 in0.0 mm
05:48 AM 57.5°F14.2°C 55.7°F13.2°C 94% Calm Calm -- 30.02 in1016.6 mb 0.00 in0.0 mm 0.00 in0.0 mm 0.00 in0.0 mm
05:53 AM 57.1°F13.9°C 55.1°F12.8°C 93% Calm Calm -- 30.02 in1016.6 mb 0.00 in0.0 mm 0.00 in0.0 mm 0.00 in0.0 mm
05:58 AM 56.9°F13.8°C 55.2°F12.9°C 94% Calm Calm -- 30.01 in1016.3 mb 0.00 in0.0 mm 0.00 in0.0 mm 0.00 in0.0 mm
06:03 AM 56.8°F13.8°C 55.1°F12.8°C 94% Calm Calm -- 30.01 in1016.3 mb 0.00 in0.0 mm 0.00 in0.0 mm 0.00 in0.0 mm
06:08 AM 56.9°F13.8°C 55.2°F12.9°C 94% Calm Calm -- 30.01 in1016.3 mb 0.00 in0.0 mm 0.00 in0.0 mm 0.00 in0.0 mm
06:13 AM 57.0°F13.9°C 55.5°F13.1°C 95% Calm Calm -- 30.02 in1016.6 mb 0.00 in0.0 mm 0.00 in0.0 mm 0.00 in0.0 mm
06:18 AM 57.0°F13.9°C 55.5°F13.1°C 95% Calm Calm -- 30.02 in1016.6 mb 0.00 in0.0 mm 0.00 in0.0 mm 0.00 in0.0 mm
06:23 AM 57.2°F14.0°C 55.8°F13.2°C 95% Calm Calm -- 30.02 in1016.6 mb 0.00 in0.0 mm 0.00 in0.0 mm 0.00 in0.0 mm
06:28 AM 57.3°F14.1°C 55.8°F13.2°C 95% Calm Calm 1.0 mph1.6 kmh 30.02 in1016.6 mb 0.00 in0.0 mm 0.00 in0.0 mm 0.00 in0.0 mm
06:33 AM 57.3°F14.1°C 55.5°F13.1°C 94% 1.0 mph WSW1.6 kmh WSW 1.0 mph1.6 kmh 30.02 in1016.6 mb 0.00 in0.0 mm 0.00 in0.0 mm 0.00 in0.0 mm
06:38 AM 57.3°F14.1°C 55.6°F13.1°C 94% 1.0 mph SW1.6 kmh SW 1.0 mph1.6 kmh 30.02 in1016.6 mb 0.00 in0.0 mm 0.00 in0.0 mm 0.00 in0.0 mm
06:43 AM 57.2°F14.0°C 55.5°F13.1°C 94% 1.1 mph SW1.8 kmh SW 2.0 mph3.2 kmh 30.03 in1016.9 mb 0.00 in0.0 mm 0.00 in0.0 mm 0.00 in0.0 mm
06:48 AM 56.7°F13.7°C 55.0°F12.8°C 94% 1.8 mph SW2.9 kmh SW 3.0 mph4.8 kmh 30.03 in1016.9 mb 0.00 in0.0 mm 0.00 in0.0 mm 0.00 in0.0 mm
06:54 AM 56.0°F13.3°C 54.3°F12.4°C 94% 2.1 mph SW3.4 kmh SW 4.0 mph6.4 kmh 30.03 in1016.9 mb 0.00 in0.0 mm 0.00 in0.0 mm 0.00 in0.0 mm
06:59 AM 55.6°F13.1°C 54.2°F12.3°C 95% 3.1 mph SW5.0 kmh SW 5.0 mph8.0 kmh 30.03 in1016.9 mb 0.00 in0.0 mm 0.00 in0.0 mm 0.00 in0.0 mm
07:04 AM 55.4°F13.0°C 54.0°F12.2°C 95% 2.8 mph SW4.5 kmh SW 6.0 mph9.7 kmh 30.04 in1017.3 mb 0.00 in0.0 mm 0.00 in0.0 mm 0.00 in0.0 mm
07:09 AM 55.1°F12.8°C 53.9°F12.2°C 96% 2.2 mph SW3.5 kmh SW 6.0 mph9.7 kmh 30.04 in1017.3 mb 0.00 in0.0 mm 0.00 in0.0 mm 0.00 in0.0 mm
07:13 AM 55.1°F12.8°C 54.0°F12.2°C 96% 1.6 mph SW2.6 kmh SW 6.0 mph9.7 kmh 30.04 in1017.3 mb 0.00 in0.0 mm 0.00 in0.0 mm 0.00 in0.0 mm
07:19 AM 55.1°F12.8°C 54.0°F12.2°C 96% 1.5 mph SW2.4 kmh SW 6.0 mph9.7 kmh 30.04 in1017.3 mb 0.00 in0.0 mm 0.00 in0.0 mm 0.00 in0.0 mm
07:24 AM 55.1°F12.8°C 54.2°F12.3°C 97% 2.0 mph SW3.2 kmh SW 5.0 mph8.0 kmh 30.04 in1017.3 mb 0.00 in0.0 mm 0.00 in0.0 mm 0.00 in0.0 mm
07:29 AM 55.2°F12.9°C 54.3°F12.4°C 97% 1.9 mph SW3.1 kmh SW 4.0 mph6.4 kmh 30.04 in1017.3 mb 0.00 in0.0 mm 0.00 in0.0 mm 0.00 in0.0 mm
07:34 AM 55.4°F13.0°C 54.5°F12.5°C 97% 1.4 mph SW2.3 kmh SW 4.0 mph6.4 kmh 30.04 in1017.3 mb 0.00 in0.0 mm 0.00 in0.0 mm 0.00 in0.0 mm
07:38 AM 55.5°F13.1°C 54.6°F12.6°C 97% 2.0 mph SW3.2 kmh SW 4.0 mph6.4 kmh 30.04 in1017.3 mb 0.00 in0.0 mm 0.00 in0.0 mm 0.00 in0.0 mm
07:43 AM 55.7°F13.2°C 54.8°F12.7°C 97% 1.4 mph SW2.3 kmh SW 4.0 mph6.4 kmh 30.04 in1017.3 mb 0.00 in0.0 mm 0.00 in0.0 mm 0.00 in0.0 mm
07:48 AM 55.8°F13.2°C 54.9°F12.7°C 97% 1.3 mph SW2.1 kmh SW 3.0 mph4.8 kmh 30.04 in1017.3 mb 0.00 in0.0 mm 0.00 in0.0 mm 0.00 in0.0 mm
07:53 AM 55.9°F13.3°C 55.1°F12.8°C 97% 1.4 mph SW2.3 kmh SW 4.0 mph6.4 kmh 30.04 in1017.3 mb 0.00 in0.0 mm 0.00 in0.0 mm 0.00 in0.0 mm
07:58 AM 56.0°F13.3°C 55.2°F12.9°C 97% 1.3 mph WSW2.1 kmh WSW 4.0 mph6.4 kmh 30.04 in1017.3 mb 0.00 in0.0 mm 0.00 in0.0 mm 0.00 in0.0 mm
08:03 AM 56.1°F13.4°C 54.9°F12.7°C 96% 1.4 mph WSW2.3 kmh WSW 4.0 mph6.4 kmh 30.04 in1017.3 mb 0.00 in0.0 mm 0.00 in0.0 mm 0.00 in0.0 mm
08:08 AM 56.3°F13.5°C 55.1°F12.8°C 96% 1.1 mph WSW1.8 kmh WSW 4.0 mph6.4 kmh 30.04 in1017.3 mb 0.00 in0.0 mm 0.00 in0.0 mm 0.00 in0.0 mm
08:13 AM 56.5°F13.6°C 55.3°F12.9°C 96% 1.1 mph W1.8 kmh W 4.0 mph6.4 kmh 30.04 in1017.3 mb 0.00 in0.0 mm 0.00 in0.0 mm 0.00 in0.0 mm
08:18 AM 56.6°F13.7°C 55.4°F13.0°C 96% 1.9 mph WSW3.1 kmh WSW 4.0 mph6.4 kmh 30.04 in1017.3 mb 0.00 in0.0 mm 0.00 in0.0 mm 0.00 in0.0 mm
08:23 AM 56.6°F13.7°C 55.5°F13.1°C 96% 1.9 mph WSW3.1 kmh WSW 4.0 mph6.4 kmh 30.04 in1017.3 mb 0.00 in0.0 mm 0.00 in0.0 mm 0.00 in0.0 mm
08:28 AM 56.6°F13.7°C 55.5°F13.1°C 96% 1.8 mph WSW2.9 kmh WSW 4.0 mph6.4 kmh 30.04 in1017.3 mb 0.00 in0.0 mm 0.00 in0.0 mm 0.00 in0.0 mm
08:33 AM 56.6°F13.7°C 55.4°F13.0°C 96% 2.2 mph WSW3.5 kmh WSW 4.0 mph6.4 kmh 30.05 in1017.6 mb 0.00 in0.0 mm 0.00 in0.0 mm 0.00 in0.0 mm
08:38 AM 56.8°F13.8°C 55.7°F13.2°C 96% 1.4 mph W2.3 kmh W 4.0 mph6.4 kmh 30.05 in1017.6 mb 0.00 in0.0 mm 0.00 in0.0 mm 0.00 in0.0 mm
08:43 AM 57.0°F13.9°C 55.8°F13.2°C 96% 1.7 mph W2.7 kmh W 4.0 mph6.4 kmh 30.04 in1017.3 mb 0.00 in0.0 mm 0.00 in0.0 mm 0.00 in0.0 mm
08:48 AM 57.2°F14.0°C 56.0°F13.3°C 96% 1.8 mph WNW2.9 kmh WNW 4.0 mph6.4 kmh 30.05 in1017.6 mb 0.00 in0.0 mm 0.00 in0.0 mm 0.00 in0.0 mm
08:53 AM 57.5°F14.2°C 56.3°F13.5°C 96% 1.1 mph W1.8 kmh W 3.0 mph4.8 kmh 30.05 in1017.6 mb 0.00 in0.0 mm 0.00 in0.0 mm 0.00 in0.0 mm
08:58 AM 57.8°F14.3°C 56.6°F13.7°C 96% 1.0 mph WNW1.6 kmh WNW 3.0 mph4.8 kmh 30.05 in1017.6 mb 0.00 in0.0 mm 0.00 in0.0 mm 0.00 in0.0 mm
09:03 AM 58.0°F14.4°C 56.5°F13.6°C 95% 1.0 mph W1.6 kmh W 3.0 mph4.8 kmh 30.05 in1017.6 mb 0.01 in0.3 mm 0.01 in0.3 mm 0.01 in0.3 mm
09:08 AM 58.2°F14.6°C 56.7°F13.7°C 95% 1.0 mph W1.6 kmh W 3.0 mph4.8 kmh 30.05 in1017.6 mb 0.01 in0.3 mm 0.00 in0.0 mm 0.01 in0.3 mm
09:13 AM 58.4°F14.7°C 56.9°F13.8°C 95% 1.0 mph W1.6 kmh W 3.0 mph4.8 kmh 30.05 in1017.6 mb 0.01 in0.3 mm 0.00 in0.0 mm 0.01 in0.3 mm
09:18 AM 58.6°F14.8°C 57.1°F13.9°C 95% 1.5 mph W2.4 kmh W 3.0 mph4.8 kmh 30.06 in1017.9 mb 0.01 in0.3 mm 0.00 in0.0 mm 0.01 in0.3 mm
09:23 AM 58.7°F14.8°C 57.2°F14.0°C 95% Calm Calm 3.0 mph4.8 kmh 30.06 in1017.9 mb 0.01 in0.3 mm 0.00 in0.0 mm 0.01 in0.3 mm
09:28 AM 58.7°F14.8°C 57.3°F14.1°C 95% 1.4 mph WNW2.3 kmh WNW 3.0 mph4.8 kmh 30.06 in1017.9 mb 0.01 in0.3 mm 0.00 in0.0 mm 0.01 in0.3 mm
09:33 AM 58.7°F14.8°C 57.2°F14.0°C 95% 1.4 mph WSW2.3 kmh WSW 4.0 mph6.4 kmh 30.06 in1017.9 mb 0.01 in0.3 mm 0.00 in0.0 mm 0.01 in0.3 mm
09:38 AM 58.8°F14.9°C 57.3°F14.1°C 95% 1.5 mph WSW2.4 kmh WSW 4.0 mph6.4 kmh 30.07 in1018.3 mb 0.01 in0.3 mm 0.00 in0.0 mm 0.01 in0.3 mm
09:43 AM 58.9°F14.9°C 57.5°F14.2°C 95% 1.5 mph W2.4 kmh W 4.0 mph6.4 kmh 30.06 in1017.9 mb 0.01 in0.3 mm 0.00 in0.0 mm 0.01 in0.3 mm
09:48 AM 58.9°F14.9°C 57.5°F14.2°C 95% 1.2 mph W1.9 kmh W 4.0 mph6.4 kmh 30.07 in1018.3 mb 0.01 in0.3 mm 0.00 in0.0 mm 0.01 in0.3 mm
09:53 AM 58.9°F14.9°C 57.4°F14.1°C 95% 1.2 mph W1.9 kmh W 4.0 mph6.4 kmh 30.07 in1018.3 mb 0.02 in0.5 mm 0.12 in3.0 mm 0.02 in0.5 mm
09:58 AM 59.0°F15.0°C 57.5°F14.2°C 95% 1.1 mph W1.8 kmh W 4.0 mph6.4 kmh 30.07 in1018.3 mb 0.02 in0.5 mm 0.00 in0.0 mm 0.02 in0.5 mm
10:03 AM 59.2°F15.1°C 58.0°F14.4°C 96% 2.0 mph WNW3.2 kmh WNW 4.0 mph6.4 kmh 30.07 in1018.3 mb 0.01 in0.3 mm 0.00 in0.0 mm 0.02 in0.5 mm
10:08 AM 59.5°F15.3°C 58.3°F14.6°C 96% 1.3 mph W2.1 kmh W 4.0 mph6.4 kmh 30.07 in1018.3 mb 0.01 in0.3 mm 0.00 in0.0 mm 0.02 in0.5 mm
10:13 AM 59.7°F15.4°C 58.5°F14.7°C 96% 1.6 mph W2.6 kmh W 5.0 mph8.0 kmh 30.07 in1018.3 mb 0.02 in0.5 mm 0.12 in3.0 mm 0.03 in0.8 mm
10:18 AM 59.9°F15.5°C 58.7°F14.8°C 96% 2.1 mph WNW3.4 kmh WNW 5.0 mph8.0 kmh 30.07 in1018.3 mb 0.02 in0.5 mm 0.00 in0.0 mm 0.03 in0.8 mm
10:23 AM 60.1°F15.6°C 58.9°F14.9°C 96% 1.4 mph W2.3 kmh W 5.0 mph8.0 kmh 30.07 in1018.3 mb 0.02 in0.5 mm 0.00 in0.0 mm 0.03 in0.8 mm
10:28 AM 60.3°F15.7°C 59.1°F15.1°C 96% 1.0 mph WNW1.6 kmh WNW 5.0 mph8.0 kmh 30.07 in1018.3 mb 0.02 in0.5 mm 0.00 in0.0 mm 0.03 in0.8 mm
10:33 AM 60.5°F15.8°C 59.3°F15.2°C 96% 1.0 mph WNW1.6 kmh WNW 4.0 mph6.4 kmh 30.07 in1018.3 mb 0.02 in0.5 mm 0.00 in0.0 mm 0.03 in0.8 mm
10:38 AM 60.6°F15.9°C 59.4°F15.2°C 96% 1.0 mph W1.6 kmh W 3.0 mph4.8 kmh 30.08 in1018.6 mb 0.02 in0.5 mm 0.00 in0.0 mm 0.03 in0.8 mm
10:43 AM 60.5°F15.8°C 59.3°F15.2°C 96% 1.8 mph W2.9 kmh W 3.0 mph4.8 kmh 30.08 in1018.6 mb 0.03 in0.8 mm 0.12 in3.0 mm 0.04 in1.0 mm
10:48 AM 60.5°F15.8°C 59.3°F15.2°C 96% 1.3 mph WSW2.1 kmh WSW 3.0 mph4.8 kmh 30.08 in1018.6 mb 0.03 in0.8 mm 0.00 in0.0 mm 0.04 in1.0 mm
10:53 AM 60.4°F15.8°C 59.2°F15.1°C 96% 1.4 mph SW2.3 kmh SW 3.0 mph4.8 kmh 30.08 in1018.6 mb 0.02 in0.5 mm 0.00 in0.0 mm 0.04 in1.0 mm
10:58 AM 60.4°F15.8°C 59.2°F15.1°C 96% 1.5 mph WSW2.4 kmh WSW 3.0 mph4.8 kmh 30.08 in1018.6 mb 0.02 in0.5 mm 0.00 in0.0 mm 0.04 in1.0 mm
11:03 AM 60.4°F15.8°C 59.2°F15.1°C 96% 1.3 mph WSW2.1 kmh WSW 3.0 mph4.8 kmh 30.08 in1018.6 mb 0.03 in0.8 mm 0.01 in0.3 mm 0.05 in1.3 mm
11:08 AM 60.4°F15.8°C 59.2°F15.1°C 96% 1.0 mph SW1.6 kmh SW 3.0 mph4.8 kmh 30.08 in1018.6 mb 0.02 in0.5 mm 0.00 in0.0 mm 0.05 in1.3 mm
11:13 AM 60.4°F15.8°C 59.3°F15.2°C 96% Calm Calm 3.0 mph4.8 kmh 30.08 in1018.6 mb 0.03 in0.8 mm 0.12 in3.0 mm 0.06 in1.5 mm
11:18 AM 60.6°F15.9°C 59.5°F15.3°C 96% Calm Calm 2.0 mph3.2 kmh 30.08 in1018.6 mb 0.03 in0.8 mm 0.00 in0.0 mm 0.06 in1.5 mm
11:23 AM 60.6°F15.9°C 59.5°F15.3°C 96% Calm Calm 2.0 mph3.2 kmh 30.08 in1018.6 mb 0.04 in1.0 mm 0.12 in3.0 mm 0.07 in1.8 mm
11:28 AM 60.7°F15.9°C 59.6°F15.3°C 96% Calm Calm 1.0 mph1.6 kmh 30.08 in1018.6 mb 0.04 in1.0 mm 0.00 in0.0 mm 0.07 in1.8 mm
11:33 AM 60.7°F15.9°C 59.6°F15.3°C 96% Calm Calm -- 30.08 in1018.6 mb 0.05 in1.3 mm 0.12 in3.0 mm 0.08 in2.0 mm
11:38 AM 60.8°F16.0°C 59.7°F15.4°C 96% Calm Calm -- 30.08 in1018.6 mb 0.05 in1.3 mm 0.00 in0.0 mm 0.09 in2.3 mm
11:43 AM 60.6°F15.9°C 59.5°F15.3°C 96% 1.4 mph NW2.3 kmh NW 2.0 mph3.2 kmh 30.08 in1018.6 mb 0.05 in1.3 mm 0.00 in0.0 mm 0.09 in2.3 mm
11:48 AM 60.4°F15.8°C 59.3°F15.2°C 96% 2.0 mph NW3.2 kmh NW 4.0 mph6.4 kmh 30.08 in1018.6 mb 0.05 in1.3 mm 0.00 in0.0 mm 0.09 in2.3 mm
11:53 AM 60.2°F15.7°C 59.1°F15.1°C 96% 1.3 mph W2.1 kmh W 4.0 mph6.4 kmh 30.08 in1018.6 mb 0.06 in1.5 mm 0.12 in3.0 mm 0.10 in2.5 mm
11:58 AM 60.3°F15.7°C 59.2°F15.1°C 96% 1.2 mph WNW1.9 kmh WNW 4.0 mph6.4 kmh 30.07 in1018.3 mb 0.06 in1.5 mm 0.00 in0.0 mm 0.10 in2.5 mm
12:03 PM 60.3°F15.7°C 59.1°F15.1°C 96% 1.0 mph WNW1.6 kmh WNW 4.0 mph6.4 kmh 30.07 in1018.3 mb 0.06 in1.5 mm 0.00 in0.0 mm 0.11 in2.8 mm
12:08 PM 60.3°F15.7°C 59.1°F15.1°C 96% 1.0 mph WNW1.6 kmh WNW 3.0 mph4.8 kmh 30.07 in1018.3 mb 0.06 in1.5 mm 0.00 in0.0 mm 0.11 in2.8 mm
12:13 PM 60.4°F15.8°C 59.2°F15.1°C 96% 1.0 mph WNW1.6 kmh WNW 2.0 mph3.2 kmh 30.07 in1018.3 mb 0.05 in1.3 mm 0.00 in0.0 mm 0.11 in2.8 mm
12:18 PM 60.5°F15.8°C 59.3°F15.2°C 96% 1.0 mph WNW1.6 kmh WNW 1.0 mph1.6 kmh 30.07 in1018.3 mb 0.05 in1.3 mm 0.00 in0.0 mm 0.11 in2.8 mm
12:23 PM 60.6°F15.9°C 59.4°F15.2°C 96% 1.0 mph WNW1.6 kmh WNW 1.0 mph1.6 kmh 30.07 in1018.3 mb 0.05 in1.3 mm 0.00 in0.0 mm 0.12 in3.0 mm
12:28 PM 60.6°F15.9°C 59.4°F15.2°C 96% 1.6 mph WNW2.6 kmh WNW 3.0 mph4.8 kmh 30.07 in1018.3 mb 0.05 in1.3 mm 0.00 in0.0 mm 0.12 in3.0 mm
12:33 PM 60.5°F15.8°C 59.3°F15.2°C 96% 1.0 mph WNW1.6 kmh WNW 3.0 mph4.8 kmh 30.07 in1018.3 mb 0.04 in1.0 mm 0.00 in0.0 mm 0.12 in3.0 mm
12:38 PM 60.6°F15.9°C 59.4°F15.2°C 96% Calm Calm 3.0 mph4.8 kmh 30.07 in1018.3 mb 0.04 in1.0 mm 0.00 in0.0 mm 0.13 in3.3 mm
12:43 PM 60.7°F15.9°C 59.5°F15.3°C 96% Calm Calm 3.0 mph4.8 kmh 30.06 in1017.9 mb 0.05 in1.3 mm 0.12 in3.0 mm 0.14 in3.6 mm
12:48 PM 60.8°F16.0°C 59.6°F15.3°C 96% Calm Calm 2.0 mph3.2 kmh 30.05 in1017.6 mb 0.07 in1.8 mm 0.24 in6.1 mm 0.16 in4.1 mm
12:53 PM 60.8°F16.0°C 59.6°F15.3°C 96% 1.4 mph SW2.3 kmh SW 2.0 mph3.2 kmh 30.06 in1017.9 mb 0.08 in2.0 mm 0.12 in3.0 mm 0.18 in4.6 mm
12:58 PM 60.9°F16.1°C 59.7°F15.4°C 96% 1.0 mph SW1.6 kmh SW 2.0 mph3.2 kmh 30.05 in1017.6 mb 0.08 in2.0 mm 0.00 in0.0 mm 0.18 in4.6 mm
01:03 PM 60.9°F16.1°C 59.7°F15.4°C 96% Calm Calm 2.0 mph3.2 kmh 30.05 in1017.6 mb 0.07 in1.8 mm 0.00 in0.0 mm 0.18 in4.6 mm
01:08 PM 61.1°F16.2°C 59.9°F15.5°C 96% 1.2 mph SW1.9 kmh SW 2.0 mph3.2 kmh 30.05 in1017.6 mb 0.07 in1.8 mm 0.00 in0.0 mm 0.18 in4.6 mm
01:13 PM 61.0°F16.1°C 59.8°F15.4°C 96% 1.3 mph SE2.1 kmh SE 3.0 mph4.8 kmh 30.05 in1017.6 mb 0.07 in1.8 mm 0.00 in0.0 mm 0.18 in4.6 mm
01:18 PM 60.9°F16.1°C 59.7°F15.4°C 96% 2.3 mph SE3.7 kmh SE 4.0 mph6.4 kmh 30.04 in1017.3 mb 0.07 in1.8 mm 0.00 in0.0 mm 0.18 in4.6 mm
01:23 PM 61.1°F16.2°C 59.9°F15.5°C 96% 2.1 mph S3.4 kmh S 4.0 mph6.4 kmh 30.04 in1017.3 mb 0.06 in1.5 mm 0.00 in0.0 mm 0.18 in4.6 mm
01:28 PM 61.3°F16.3°C 60.4°F15.8°C 97% 1.8 mph S2.9 kmh S 4.0 mph6.4 kmh 30.04 in1017.3 mb 0.06 in1.5 mm 0.00 in0.0 mm 0.18 in4.6 mm
01:33 PM 61.5°F16.4°C 60.3°F15.7°C 96% 1.4 mph SSE2.3 kmh SSE 4.0 mph6.4 kmh 30.03 in1016.9 mb 0.06 in1.5 mm 0.00 in0.0 mm 0.18 in4.6 mm
01:37 PM 61.4°F16.3°C 60.2°F15.7°C 96% 3.1 mph SE5.0 kmh SE 6.0 mph9.7 kmh 30.03 in1016.9 mb 0.05 in1.3 mm 0.00 in0.0 mm 0.18 in4.6 mm
01:42 PM 61.7°F16.5°C 60.5°F15.8°C 96% Calm Calm 6.0 mph9.7 kmh 30.02 in1016.6 mb 0.04 in1.0 mm 0.00 in0.0 mm 0.18 in4.6 mm
01:47 PM 61.7°F16.5°C 60.2°F15.7°C 95% 1.8 mph S2.9 kmh S 6.0 mph9.7 kmh 30.02 in1016.6 mb 0.02 in0.5 mm 0.00 in0.0 mm 0.18 in4.6 mm
01:52 PM 61.8°F16.6°C 60.3°F15.7°C 95% 1.0 mph SE1.6 kmh SE 6.0 mph9.7 kmh 30.02 in1016.6 mb 0.00 in0.0 mm 0.00 in0.0 mm 0.18 in4.6 mm
01:57 PM 61.9°F16.6°C 60.4°F15.8°C 95% 1.5 mph SE2.4 kmh SE 3.0 mph4.8 kmh 30.01 in1016.3 mb 0.00 in0.0 mm 0.00 in0.0 mm 0.18 in4.6 mm
02:02 PM 62.0°F16.7°C 60.2°F15.7°C 94% 2.1 mph S3.4 kmh S 4.0 mph6.4 kmh 30.01 in1016.3 mb 0.00 in0.0 mm 0.00 in0.0 mm 0.18 in4.6 mm
02:07 PM 62.1°F16.7°C 60.0°F15.6°C 93% 1.8 mph SSW2.9 kmh SSW 4.0 mph6.4 kmh 30.02 in1016.6 mb 0.00 in0.0 mm 0.00 in0.0 mm 0.18 in4.6 mm
02:12 PM 62.4°F16.9°C 60.6°F15.9°C 94% 1.0 mph SW1.6 kmh SW 4.0 mph6.4 kmh 30.01 in1016.3 mb 0.00 in0.0 mm 0.00 in0.0 mm 0.18 in4.6 mm
02:17 PM 62.2°F16.8°C 59.8°F15.4°C 92% 1.9 mph SW3.1 kmh SW 4.0 mph6.4 kmh 30.02 in1016.6 mb 0.00 in0.0 mm 0.00 in0.0 mm 0.18 in4.6 mm
02:22 PM 62.3°F16.8°C 59.9°F15.5°C 92% 2.3 mph SW3.7 kmh SW 4.0 mph6.4 kmh 30.01 in1016.3 mb 0.00 in0.0 mm 0.00 in0.0 mm 0.18 in4.6 mm
02:27 PM 62.2°F16.8°C 59.8°F15.4°C 92% 2.1 mph SW3.4 kmh SW 4.0 mph6.4 kmh 30.01 in1016.3 mb 0.00 in0.0 mm 0.00 in0.0 mm 0.18 in4.6 mm
02:32 PM 62.2°F16.8°C 59.8°F15.4°C 92% 1.1 mph SW1.8 kmh SW 4.0 mph6.4 kmh 30.02 in1016.6 mb 0.00 in0.0 mm 0.00 in0.0 mm 0.18 in4.6 mm
02:37 PM 62.2°F16.8°C 59.8°F15.4°C 92% 1.3 mph SW2.1 kmh SW 4.0 mph6.4 kmh 30.01 in1016.3 mb 0.00 in0.0 mm 0.00 in0.0 mm 0.18 in4.6 mm
02:42 PM 62.3°F16.8°C 59.9°F15.5°C 92% 1.2 mph SE1.9 kmh SE 4.0 mph6.4 kmh 30.01 in1016.3 mb 0.00 in0.0 mm 0.00 in0.0 mm 0.18 in4.6 mm
02:47 PM 62.2°F16.8°C 59.8°F15.4°C 92% 1.4 mph SSE2.3 kmh SSE 4.0 mph6.4 kmh 30.01 in1016.3 mb 0.00 in0.0 mm 0.00 in0.0 mm 0.18 in4.6 mm
02:52 PM 62.2°F16.8°C 59.8°F15.4°C 92% 1.0 mph SSE1.6 kmh SSE 3.0 mph4.8 kmh 30.01 in1016.3 mb 0.00 in0.0 mm 0.00 in0.0 mm 0.18 in4.6 mm
02:57 PM 62.2°F16.8°C 60.1°F15.6°C 93% 1.2 mph SSW1.9 kmh SSW 3.0 mph4.8 kmh 30.01 in1016.3 mb 0.00 in0.0 mm 0.00 in0.0 mm 0.18 in4.6 mm
03:02 PM 62.4°F16.9°C 60.3°F15.7°C 93% 1.0 mph SW1.6 kmh SW 3.0 mph4.8 kmh 30.01 in1016.3 mb 0.00 in0.0 mm 0.00 in0.0 mm 0.18 in4.6 mm
03:07 PM 62.5°F16.9°C 60.4°F15.8°C 93% Calm Calm 3.0 mph4.8 kmh 30.01 in1016.3 mb 0.00 in0.0 mm 0.00 in0.0 mm 0.18 in4.6 mm
03:12 PM 62.6°F17.0°C 60.5°F15.8°C 93% 1.9 mph SSE3.1 kmh SSE 3.0 mph4.8 kmh 30.00 in1015.9 mb 0.00 in0.0 mm 0.00 in0.0 mm 0.18 in4.6 mm
03:17 PM 62.6°F17.0°C 60.5°F15.8°C 93% 1.7 mph SSW2.7 kmh SSW 4.0 mph6.4 kmh 30.00 in1015.9 mb 0.00 in0.0 mm 0.00 in0.0 mm 0.18 in4.6 mm
03:22 PM 62.6°F17.0°C 60.2°F15.7°C 92% 2.8 mph SSW4.5 kmh SSW 6.0 mph9.7 kmh 30.00 in1015.9 mb 0.00 in0.0 mm 0.00 in0.0 mm 0.18 in4.6 mm
03:27 PM 62.5°F16.9°C 60.1°F15.6°C 92% 2.7 mph SW4.3 kmh SW 6.0 mph9.7 kmh 30.01 in1016.3 mb 0.00 in0.0 mm 0.00 in0.0 mm 0.18 in4.6 mm
03:32 PM 62.6°F17.0°C 60.2°F15.7°C 92% 1.6 mph SW2.6 kmh SW 6.0 mph9.7 kmh 30.01 in1016.3 mb 0.00 in0.0 mm 0.00 in0.0 mm 0.18 in4.6 mm
03:37 PM 62.7°F17.1°C 60.3°F15.7°C 92% 2.3 mph SSW3.7 kmh SSW 6.0 mph9.7 kmh 30.00 in1015.9 mb 0.00 in0.0 mm 0.00 in0.0 mm 0.18 in4.6 mm
03:42 PM 62.8°F17.1°C 60.4°F15.8°C 92% 2.3 mph SSW3.7 kmh SSW 5.0 mph8.0 kmh 30.00 in1015.9 mb 0.00 in0.0 mm 0.00 in0.0 mm 0.18 in4.6 mm
03:47 PM 62.7°F17.1°C 60.3°F15.7°C 92% 2.1 mph SW3.4 kmh SW 5.0 mph8.0 kmh 30.01 in1016.3 mb 0.00 in0.0 mm 0.00 in0.0 mm 0.18 in4.6 mm
03:52 PM 62.7°F17.1°C 60.3°F15.7°C 92% 1.7 mph SSW2.7 kmh SSW 5.0 mph8.0 kmh 30.01 in1016.3 mb 0.00 in0.0 mm 0.00 in0.0 mm 0.18 in4.6 mm
03:57 PM 62.8°F17.1°C 60.4°F15.8°C 92% 2.0 mph SW3.2 kmh SW 5.0 mph8.0 kmh 30.01 in1016.3 mb 0.00 in0.0 mm 0.00 in0.0 mm 0.18 in4.6 mm
04:02 PM 62.8°F17.1°C 60.4°F15.8°C 92% 2.2 mph SW3.5 kmh SW 5.0 mph8.0 kmh 30.01 in1016.3 mb 0.00 in0.0 mm 0.00 in0.0 mm 0.18 in4.6 mm
04:07 PM 62.7°F17.1°C 60.3°F15.7°C 92% 1.3 mph SW2.1 kmh SW 5.0 mph8.0 kmh 30.02 in1016.6 mb 0.00 in0.0 mm 0.00 in0.0 mm 0.18 in4.6 mm
04:12 PM 62.7°F17.1°C 60.3°F15.7°C 92% 2.5 mph SW4.0 kmh SW 4.0 mph6.4 kmh 30.02 in1016.6 mb 0.00 in0.0 mm 0.00 in0.0 mm 0.18 in4.6 mm
04:17 PM 62.7°F17.1°C 60.6°F15.9°C 93% 1.2 mph SW1.9 kmh SW 4.0 mph6.4 kmh 30.02 in1016.6 mb 0.00 in0.0 mm 0.00 in0.0 mm 0.18 in4.6 mm
04:22 PM 62.7°F17.1°C 60.6°F15.9°C 93% Calm Calm 4.0 mph6.4 kmh 30.01 in1016.3 mb 0.00 in0.0 mm 0.00 in0.0 mm 0.18 in4.6 mm
04:27 PM 62.8°F17.1°C 60.7°F15.9°C 93% 1.0 mph SSW1.6 kmh SSW 4.0 mph6.4 kmh 30.01 in1016.3 mb 0.00 in0.0 mm 0.00 in0.0 mm 0.18 in4.6 mm
04:32 PM 63.0°F17.2°C 60.9°F16.1°C 93% Calm Calm 4.0 mph6.4 kmh 30.01 in1016.3 mb 0.00 in0.0 mm 0.00 in0.0 mm 0.18 in4.6 mm
04:37 PM 63.2°F17.3°C 60.8°F16.0°C 92% 2.7 mph SSW4.3 kmh SSW 5.0 mph8.0 kmh 30.01 in1016.3 mb 0.00 in0.0 mm 0.00 in0.0 mm 0.18 in4.6 mm
04:42 PM 63.6°F17.6°C 61.2°F16.2°C 92% 1.0 mph SW1.6 kmh SW 5.0 mph8.0 kmh 30.01 in1016.3 mb 0.00 in0.0 mm 0.00 in0.0 mm 0.18 in4.6 mm
04:47 PM 63.7°F17.6°C 61.0°F16.1°C 91% 2.3 mph SSW3.7 kmh SSW 5.0 mph8.0 kmh 30.01 in1016.3 mb 0.00 in0.0 mm 0.00 in0.0 mm 0.18 in4.6 mm
04:52 PM 63.6°F17.6°C 60.9°F16.1°C 91% 1.7 mph S2.7 kmh S 5.0 mph8.0 kmh 30.01 in1016.3 mb 0.00 in0.0 mm 0.00 in0.0 mm 0.18 in4.6 mm
04:57 PM 63.6°F17.6°C 60.9°F16.1°C 91% 1.2 mph SW1.9 kmh SW 5.0 mph8.0 kmh 30.01 in1016.3 mb 0.00 in0.0 mm 0.00 in0.0 mm 0.18 in4.6 mm
05:02 PM 63.5°F17.5°C 60.8°F16.0°C 91% 1.3 mph WSW2.1 kmh WSW 5.0 mph8.0 kmh 30.02 in1016.6 mb 0.00 in0.0 mm 0.00 in0.0 mm 0.18 in4.6 mm
05:07 PM 63.4°F17.4°C 61.0°F16.1°C 92% 1.0 mph SW1.6 kmh SW 5.0 mph8.0 kmh 30.02 in1016.6 mb 0.03 in0.8 mm 0.36 in9.1 mm 0.21 in5.3 mm
05:12 PM 63.2°F17.3°C 60.8°F16.0°C 92% 1.0 mph SW1.6 kmh SW 3.0 mph4.8 kmh 30.02 in1016.6 mb 0.05 in1.3 mm 0.24 in6.1 mm 0.23 in5.8 mm
05:17 PM 62.9°F17.2°C 60.8°F16.0°C 93% 1.4 mph SSW2.3 kmh SSW 3.0 mph4.8 kmh 30.02 in1016.6 mb 0.06 in1.5 mm 0.12 in3.0 mm 0.24 in6.1 mm
05:22 PM 62.6°F17.0°C 60.5°F15.8°C 93% 1.3 mph SSW2.1 kmh SSW 4.0 mph6.4 kmh 30.02 in1016.6 mb 0.06 in1.5 mm 0.00 in0.0 mm 0.24 in6.1 mm
05:27 PM 62.5°F16.9°C 60.4°F15.8°C 93% 1.9 mph SSW3.1 kmh SSW 4.0 mph6.4 kmh 30.02 in1016.6 mb 0.07 in1.8 mm 0.12 in3.0 mm 0.25 in6.4 mm
05:32 PM 62.3°F16.8°C 60.5°F15.8°C 94% 3.0 mph SSW4.8 kmh SSW 6.0 mph9.7 kmh 30.01 in1016.3 mb 0.10 in2.5 mm 0.36 in9.1 mm 0.28 in7.1 mm
05:37 PM 62.2°F16.8°C 60.4°F15.8°C 94% 1.7 mph S2.7 kmh S 6.0 mph9.7 kmh 30.01 in1016.3 mb 0.11 in2.8 mm 0.12 in3.0 mm 0.29 in7.4 mm
05:42 PM 62.1°F16.7°C 60.6°F15.9°C 95% 1.6 mph SW2.6 kmh SW 6.0 mph9.7 kmh 30.02 in1016.6 mb 0.11 in2.8 mm 0.00 in0.0 mm 0.29 in7.4 mm
05:47 PM 62.0°F16.7°C 60.5°F15.8°C 95% 1.8 mph SW2.9 kmh SW 7.0 mph11.3 kmh 30.02 in1016.6 mb 0.11 in2.8 mm 0.00 in0.0 mm 0.29 in7.4 mm
05:52 PM 61.9°F16.6°C 60.4°F15.8°C 95% 2.8 mph WSW4.5 kmh WSW 7.0 mph11.3 kmh 30.02 in1016.6 mb 0.11 in2.8 mm 0.00 in0.0 mm 0.29 in7.4 mm
05:57 PM 61.8°F16.6°C 60.3°F15.7°C 95% 1.5 mph SW2.4 kmh SW 7.0 mph11.3 kmh 30.03 in1016.9 mb 0.12 in3.0 mm 0.12 in3.0 mm 0.30 in7.6 mm
06:02 PM 61.8°F16.6°C 60.3°F15.7°C 95% 1.9 mph SW3.1 kmh SW 7.0 mph11.3 kmh 30.03 in1016.9 mb 0.12 in3.0 mm 0.00 in0.0 mm 0.30 in7.6 mm
06:07 PM 61.6°F16.4°C 60.4°F15.8°C 96% 1.6 mph SSW2.6 kmh SSW 5.0 mph8.0 kmh 30.02 in1016.6 mb 0.10 in2.5 mm 0.00 in0.0 mm 0.31 in7.9 mm
06:12 PM 61.6°F16.4°C 60.4°F15.8°C 96% 2.2 mph SW3.5 kmh SW 5.0 mph8.0 kmh 30.02 in1016.6 mb 0.09 in2.3 mm 0.00 in0.0 mm 0.32 in8.1 mm
06:17 PM 61.5°F16.4°C 60.3°F15.7°C 96% 2.1 mph SE3.4 kmh SE 5.0 mph8.0 kmh 30.00 in1015.9 mb 0.08 in2.0 mm 0.00 in0.0 mm 0.32 in8.1 mm
06:22 PM 61.4°F16.3°C 60.2°F15.7°C 96% 1.8 mph SSE2.9 kmh SSE 6.0 mph9.7 kmh 30.00 in1015.9 mb 0.08 in2.0 mm 0.00 in0.0 mm 0.32 in8.1 mm
06:27 PM 61.3°F16.3°C 60.2°F15.7°C 96% 2.0 mph S3.2 kmh S 6.0 mph9.7 kmh 30.00 in1015.9 mb 0.07 in1.8 mm 0.00 in0.0 mm 0.32 in8.1 mm
06:32 PM 61.3°F16.3°C 60.1°F15.6°C 96% 1.4 mph SSE2.3 kmh SSE 6.0 mph9.7 kmh 30.01 in1016.3 mb 0.04 in1.0 mm 0.00 in0.0 mm 0.32 in8.1 mm
06:37 PM 61.3°F16.3°C 60.1°F15.6°C 96% 2.4 mph SSE3.9 kmh SSE 6.0 mph9.7 kmh 30.00 in1015.9 mb 0.03 in0.8 mm 0.00 in0.0 mm 0.32 in8.1 mm
06:42 PM 61.2°F16.2°C 60.3°F15.7°C 97% 2.8 mph SE4.5 kmh SE 6.0 mph9.7 kmh 30.00 in1015.9 mb 0.03 in0.8 mm 0.00 in0.0 mm 0.32 in8.1 mm
06:47 PM 61.2°F16.2°C 60.3°F15.7°C 97% 1.3 mph S2.1 kmh S 6.0 mph9.7 kmh 30.00 in1015.9 mb 0.03 in0.8 mm 0.00 in0.0 mm 0.32 in8.1 mm
06:52 PM 61.1°F16.2°C 60.2°F15.7°C 97% 1.6 mph S2.6 kmh S 5.0 mph8.0 kmh 30.00 in1015.9 mb 0.03 in0.8 mm 0.00 in0.0 mm 0.32 in8.1 mm
06:57 PM 61.1°F16.2°C 60.2°F15.7°C 97% 1.6 mph SW2.6 kmh SW 5.0 mph8.0 kmh 30.01 in1016.3 mb 0.02 in0.5 mm 0.00 in0.0 mm 0.32 in8.1 mm
07:02 PM 61.0°F16.1°C 60.1°F15.6°C 97% 2.0 mph SSW3.2 kmh SSW 4.0 mph6.4 kmh 30.02 in1016.6 mb 0.02 in0.5 mm 0.00 in0.0 mm 0.32 in8.1 mm
07:07 PM 61.0°F16.1°C 60.1°F15.6°C 97% 1.4 mph SW2.3 kmh SW 4.0 mph6.4 kmh 30.02 in1016.6 mb 0.01 in0.3 mm 0.00 in0.0 mm 0.32 in8.1 mm
07:13 PM 61.0°F16.1°C 60.1°F15.6°C 97% 1.4 mph SSW2.3 kmh SSW 4.0 mph6.4 kmh 30.02 in1016.6 mb 0.00 in0.0 mm 0.00 in0.0 mm 0.32 in8.1 mm
07:18 PM 60.9°F16.1°C 60.0°F15.6°C 97% 1.4 mph SW2.3 kmh SW 4.0 mph6.4 kmh 30.02 in1016.6 mb 0.00 in0.0 mm 0.00 in0.0 mm 0.32 in8.1 mm
07:22 PM 60.9°F16.1°C 60.0°F15.6°C 97% 2.1 mph SW3.4 kmh SW 4.0 mph6.4 kmh 30.02 in1016.6 mb 0.00 in0.0 mm 0.00 in0.0 mm 0.32 in8.1 mm
07:28 PM 60.9°F16.1°C 60.0°F15.6°C 97% 1.9 mph SW3.1 kmh SW 4.0 mph6.4 kmh 30.02 in1016.6 mb 0.00 in0.0 mm 0.00 in0.0 mm 0.32 in8.1 mm
07:33 PM 60.8°F16.0°C 59.9°F15.5°C 97% 1.8 mph SW2.9 kmh SW 4.0 mph6.4 kmh 30.02 in1016.6 mb 0.00 in0.0 mm 0.00 in0.0 mm 0.32 in8.1 mm
07:36 PM 60.8°F16.0°C 59.9°F15.5°C 97% 1.3 mph SW2.1 kmh SW 4.0 mph6.4 kmh 30.02 in1016.6 mb 0.00 in0.0 mm 0.00 in0.0 mm 0.32 in8.1 mm
07:42 PM 60.7°F15.9°C 59.8°F15.4°C 97% 2.1 mph SW3.4 kmh SW 4.0 mph6.4 kmh 30.03 in1016.9 mb 0.00 in0.0 mm 0.00 in0.0 mm 0.32 in8.1 mm
07:47 PM 60.7°F15.9°C 59.8°F15.4°C 97% 1.1 mph SW1.8 kmh SW 4.0 mph6.4 kmh 30.03 in1016.9 mb 0.00 in0.0 mm 0.00 in0.0 mm 0.32 in8.1 mm
07:52 PM 60.6°F15.9°C 59.7°F15.4°C 97% 1.5 mph SW2.4 kmh SW 4.0 mph6.4 kmh 30.03 in1016.9 mb 0.00 in0.0 mm 0.00 in0.0 mm 0.32 in8.1 mm
07:57 PM 60.6°F15.9°C 59.7°F15.4°C 97% 1.4 mph SW2.3 kmh SW 4.0 mph6.4 kmh 30.03 in1016.9 mb 0.00 in0.0 mm 0.00 in0.0 mm 0.32 in8.1 mm
08:02 PM 60.5°F15.8°C 59.6°F15.3°C 97% 1.7 mph SW2.7 kmh SW 3.0 mph4.8 kmh 30.03 in1016.9 mb 0.00 in0.0 mm 0.00 in0.0 mm 0.32 in8.1 mm
08:07 PM 60.4°F15.8°C 59.5°F15.3°C 97% 1.0 mph SW1.6 kmh SW 3.0 mph4.8 kmh 30.03 in1016.9 mb 0.00 in0.0 mm 0.00 in0.0 mm 0.32 in8.1 mm
08:12 PM 60.4°F15.8°C 59.5°F15.3°C 97% 1.0 mph SSW1.6 kmh SSW 3.0 mph4.8 kmh 30.03 in1016.9 mb 0.00 in0.0 mm 0.00 in0.0 mm 0.32 in8.1 mm
08:17 PM 60.3°F15.7°C 59.4°F15.2°C 97% 1.1 mph SW1.8 kmh SW 2.0 mph3.2 kmh 30.03 in1016.9 mb 0.00 in0.0 mm 0.00 in0.0 mm 0.32 in8.1 mm
08:22 PM 60.3°F15.7°C 59.4°F15.2°C 97% 1.1 mph SSW1.8 kmh SSW 2.0 mph3.2 kmh 30.03 in1016.9 mb 0.00 in0.0 mm 0.00 in0.0 mm 0.32 in8.1 mm
08:27 PM 60.2°F15.7°C 59.3°F15.2°C 97% 1.7 mph SSW2.7 kmh SSW 3.0 mph4.8 kmh 30.03 in1016.9 mb 0.00 in0.0 mm 0.00 in0.0 mm 0.32 in8.1 mm
08:32 PM 60.1°F15.6°C 59.2°F15.1°C 97% 1.3 mph S2.1 kmh S 3.0 mph4.8 kmh 30.03 in1016.9 mb 0.00 in0.0 mm 0.00 in0.0 mm 0.32 in8.1 mm
08:37 PM 60.1°F15.6°C 59.5°F15.3°C 98% 1.0 mph SW1.6 kmh SW 3.0 mph4.8 kmh 30.03 in1016.9 mb 0.00 in0.0 mm 0.00 in0.0 mm 0.32 in8.1 mm
08:42 PM 60.1°F15.6°C 59.5°F15.3°C 98% 1.4 mph S2.3 kmh S 3.0 mph4.8 kmh 30.03 in1016.9 mb 0.00 in0.0 mm 0.00 in0.0 mm 0.32 in8.1 mm
08:47 PM 60.0°F15.6°C 59.4°F15.2°C 98% 1.7 mph SSW2.7 kmh SSW 3.0 mph4.8 kmh 30.04 in1017.3 mb 0.00 in0.0 mm 0.00 in0.0 mm 0.32 in8.1 mm
08:52 PM 60.0°F15.6°C 59.4°F15.2°C 98% 1.0 mph SSW1.6 kmh SSW 3.0 mph4.8 kmh 30.03 in1016.9 mb 0.00 in0.0 mm 0.00 in0.0 mm 0.32 in8.1 mm
08:57 PM 59.9°F15.5°C 59.3°F15.2°C 98% 1.2 mph S1.9 kmh S 3.0 mph4.8 kmh 30.03 in1016.9 mb 0.00 in0.0 mm 0.00 in0.0 mm 0.32 in8.1 mm
09:02 PM 59.9°F15.5°C 59.3°F15.2°C 98% 1.1 mph S1.8 kmh S 3.0 mph4.8 kmh 30.04 in1017.3 mb 0.00 in0.0 mm 0.00 in0.0 mm 0.32 in8.1 mm
09:07 PM 59.8°F15.4°C 59.2°F15.1°C 98% 1.9 mph SSW3.1 kmh SSW 3.0 mph4.8 kmh 30.04 in1017.3 mb 0.00 in0.0 mm 0.00 in0.0 mm 0.32 in8.1 mm
09:12 PM 59.8°F15.4°C 59.2°F15.1°C 98% 1.6 mph SSW2.6 kmh SSW 3.0 mph4.8 kmh 30.04 in1017.3 mb 0.00 in0.0 mm 0.00 in0.0 mm 0.32 in8.1 mm
09:17 PM 59.7°F15.4°C 59.1°F15.1°C 98% 1.0 mph SW1.6 kmh SW 3.0 mph4.8 kmh 30.03 in1016.9 mb 0.00 in0.0 mm 0.00 in0.0 mm 0.32 in8.1 mm
09:22 PM 59.7°F15.4°C 59.1°F15.1°C 98% 1.5 mph S2.4 kmh S 3.0 mph4.8 kmh 30.03 in1016.9 mb 0.00 in0.0 mm 0.00 in0.0 mm 0.32 in8.1 mm
09:27 PM 59.7°F15.4°C 59.1°F15.1°C 98% 1.6 mph S2.6 kmh S 3.0 mph4.8 kmh 30.04 in1017.3 mb 0.00 in0.0 mm 0.00 in0.0 mm 0.32 in8.1 mm
09:32 PM 59.7°F15.4°C 59.1°F15.1°C 98% 1.4 mph SW2.3 kmh SW 4.0 mph6.4 kmh 30.04 in1017.3 mb 0.00 in0.0 mm 0.00 in0.0 mm 0.32 in8.1 mm
09:37 PM 59.7°F15.4°C 59.1°F15.1°C 98% 2.1 mph SW3.4 kmh SW 4.0 mph6.4 kmh 30.04 in1017.3 mb 0.00 in0.0 mm 0.00 in0.0 mm 0.32 in8.1 mm
09:42 PM 59.6°F15.3°C 59.0°F15.0°C 98% 1.7 mph SSW2.7 kmh SSW 4.0 mph6.4 kmh 30.04 in1017.3 mb 0.00 in0.0 mm 0.00 in0.0 mm 0.32 in8.1 mm
09:47 PM 59.6°F15.3°C 59.0°F15.0°C 98% 1.9 mph SSW3.1 kmh SSW 4.0 mph6.4 kmh 30.04 in1017.3 mb 0.00 in0.0 mm 0.00 in0.0 mm 0.32 in8.1 mm
09:52 PM 59.6°F15.3°C 59.0°F15.0°C 98% 1.3 mph SSW2.1 kmh SSW 4.0 mph6.4 kmh 30.04 in1017.3 mb 0.00 in0.0 mm 0.00 in0.0 mm 0.32 in8.1 mm
09:57 PM 59.7°F15.4°C 59.1°F15.1°C 98% 1.3 mph SSW2.1 kmh SSW 4.0 mph6.4 kmh 30.04 in1017.3 mb 0.00 in0.0 mm 0.00 in0.0 mm 0.32 in8.1 mm
10:02 PM 59.6°F15.3°C 59.0°F15.0°C 98% 1.3 mph SSW2.1 kmh SSW 4.0 mph6.4 kmh 30.04 in1017.3 mb 0.00 in0.0 mm 0.00 in0.0 mm 0.32 in8.1 mm
10:07 PM 59.6°F15.3°C 59.0°F15.0°C 98% 1.5 mph SSE2.4 kmh SSE 4.0 mph6.4 kmh 30.04 in1017.3 mb 0.00 in0.0 mm 0.00 in0.0 mm 0.32 in8.1 mm
10:12 PM 59.6°F15.3°C 59.0°F15.0°C 98% 1.6 mph S2.6 kmh S 4.0 mph6.4 kmh 30.04 in1017.3 mb 0.00 in0.0 mm 0.00 in0.0 mm 0.32 in8.1 mm
10:17 PM 59.5°F15.3°C 58.9°F14.9°C 98% 1.0 mph S1.6 kmh S 3.0 mph4.8 kmh 30.04 in1017.3 mb 0.00 in0.0 mm 0.00 in0.0 mm 0.32 in8.1 mm
10:22 PM 59.5°F15.3°C 58.9°F14.9°C 98% 1.5 mph SSW2.4 kmh SSW 3.0 mph4.8 kmh 30.04 in1017.3 mb 0.00 in0.0 mm 0.00 in0.0 mm 0.32 in8.1 mm
10:27 PM 59.5°F15.3°C 58.9°F14.9°C 98% 1.6 mph SSW2.6 kmh SSW 3.0 mph4.8 kmh 30.04 in1017.3 mb 0.00 in0.0 mm 0.00 in0.0 mm 0.32 in8.1 mm
10:32 PM 59.5°F15.3°C 58.9°F14.9°C 98% 2.0 mph SW3.2 kmh SW 4.0 mph6.4 kmh 30.05 in1017.6 mb 0.00 in0.0 mm 0.00 in0.0 mm 0.32 in8.1 mm
10:37 PM 59.5°F15.3°C 58.9°F14.9°C 98% 1.6 mph SW2.6 kmh SW 4.0 mph6.4 kmh 30.05 in1017.6 mb 0.00 in0.0 mm 0.00 in0.0 mm 0.32 in8.1 mm
10:42 PM 59.5°F15.3°C 58.9°F14.9°C 98% 1.0 mph S1.6 kmh S 4.0 mph6.4 kmh 30.05 in1017.6 mb 0.00 in0.0 mm 0.00 in0.0 mm 0.32 in8.1 mm
10:47 PM 59.5°F15.3°C 58.9°F14.9°C 98% 1.5 mph SW2.4 kmh SW 4.0 mph6.4 kmh 30.05 in1017.6 mb 0.00 in0.0 mm 0.00 in0.0 mm 0.32 in8.1 mm
10:52 PM 59.5°F15.3°C 58.9°F14.9°C 98% 2.7 mph SW4.3 kmh SW 5.0 mph8.0 kmh 30.05 in1017.6 mb 0.00 in0.0 mm 0.00 in0.0 mm 0.32 in8.1 mm
10:57 PM 59.5°F15.3°C 58.9°F14.9°C 98% 2.3 mph SW3.7 kmh SW 5.0 mph8.0 kmh 30.05 in1017.6 mb 0.00 in0.0 mm 0.00 in0.0 mm 0.32 in8.1 mm
11:02 PM 59.4°F15.2°C 58.8°F14.9°C 98% 1.4 mph SW2.3 kmh SW 5.0 mph8.0 kmh 30.05 in1017.6 mb 0.00 in0.0 mm 0.00 in0.0 mm 0.32 in8.1 mm
11:07 PM 59.4°F15.2°C 58.8°F14.9°C 98% 1.8 mph SW2.9 kmh SW 5.0 mph8.0 kmh 30.05 in1017.6 mb 0.00 in0.0 mm 0.00 in0.0 mm 0.32 in8.1 mm
11:12 PM 59.4°F15.2°C 58.8°F14.9°C 98% 1.1 mph SW1.8 kmh SW 4.0 mph6.4 kmh 30.05 in1017.6 mb 0.00 in0.0 mm 0.00 in0.0 mm 0.32 in8.1 mm
11:17 PM 59.5°F15.3°C 58.9°F14.9°C 98% Calm Calm 4.0 mph6.4 kmh 30.05 in1017.6 mb 0.00 in0.0 mm 0.00 in0.0 mm 0.32 in8.1 mm
11:22 PM 59.5°F15.3°C 58.9°F14.9°C 98% 1.5 mph SW2.4 kmh SW 4.0 mph6.4 kmh 30.04 in1017.3 mb 0.00 in0.0 mm 0.00 in0.0 mm 0.32 in8.1 mm
11:27 PM 59.5°F15.3°C 58.9°F14.9°C 98% 1.1 mph SW1.8 kmh SW 4.0 mph6.4 kmh 30.04 in1017.3 mb 0.00 in0.0 mm 0.00 in0.0 mm 0.32 in8.1 mm
11:32 PM 59.4°F15.2°C 58.8°F14.9°C 98% 1.2 mph SSW1.9 kmh SSW 4.0 mph6.4 kmh 30.04 in1017.3 mb 0.00 in0.0 mm 0.00 in0.0 mm 0.32 in8.1 mm
11:37 PM 59.4°F15.2°C 58.8°F14.9°C 98% 1.9 mph SSW3.1 kmh SSW 3.0 mph4.8 kmh 30.04 in1017.3 mb 0.00 in0.0 mm 0.00 in0.0 mm 0.32 in8.1 mm
11:42 PM 59.5°F15.3°C 58.9°F14.9°C 98% 2.1 mph SW3.4 kmh SW 5.0 mph8.0 kmh 30.04 in1017.3 mb 0.00 in0.0 mm 0.00 in0.0 mm 0.32 in8.1 mm
11:47 PM 59.5°F15.3°C 58.9°F14.9°C 98% 1.7 mph SW2.7 kmh SW 5.0 mph8.0 kmh 30.03 in1016.9 mb 0.00 in0.0 mm 0.00 in0.0 mm 0.32 in8.1 mm
11:52 PM 59.5°F15.3°C 58.9°F14.9°C 98% 1.3 mph SW2.1 kmh SW 5.0 mph8.0 kmh 30.04 in1017.3 mb 0.00 in0.0 mm 0.00 in0.0 mm 0.32 in8.1 mm
11:57 PM 59.4°F15.2°C 58.8°F14.9°C 98% 1.3 mph SW2.1 kmh SW 5.0 mph8.0 kmh 30.04 in1017.3 mb 0.00 in0.0 mm 0.00 in0.0 mm 0.32 in8.1 mm